Time;durP1;ratioP1;P1;durP2;ratioP2;P2;SDS_P1;SDS_P2;PMS_P1;PMS_P2;Temp;Humidity;BMP_temperature;BMP_pressure;BME280_temperature;BME280_humidity;BME280_pressure;Samples;Min_cycle;Max_cycle;Signal;HPM_P1;HPM_P2
2023/08/27 00:00:05;;;;;;;8.47;4.50;;;18.70;1.00;;;;;;5008689;28;20448;-72
2023/08/27 00:02:30;;;;;;;7.10;4.20;;;;;;;;;;5011098;28;20593;-74
2023/08/27 00:04:56;;;;;;;6.53;4.23;;;18.70;1.00;;;;;;5009289;28;20461;-74
2023/08/27 00:07:23;;;;;;;5.33;3.97;;;18.60;1.00;;;;;;5009965;28;20229;-75
2023/08/27 00:09:48;;;;;;;6.30;4.17;;;18.60;1.00;;;;;;5010053;28;20277;-72
2023/08/27 00:12:14;;;;;;;6.10;4.00;;;18.50;1.00;;;;;;5006106;28;20579;-75
2023/08/27 00:14:39;;;;;;;9.53;4.37;;;18.40;1.00;;;;;;5010011;28;20265;-75
2023/08/27 00:17:05;;;;;;;7.40;4.23;;;18.40;1.00;;;;;;5008783;28;20257;-74
2023/08/27 00:19:30;;;;;;;11.70;4.07;;;18.40;1.00;;;;;;5008723;28;20228;-74
2023/08/27 00:21:58;;;;;;;8.00;4.07;;;18.50;1.00;;;;;;5010023;28;20233;-74
2023/08/27 00:24:23;;;;;;;7.13;4.30;;;18.40;1.00;;;;;;5009508;28;20556;-73
2023/08/27 00:26:49;;;;;;;7.40;4.13;;;18.20;1.00;;;;;;4992943;28;20465;-76
2023/08/27 00:29:19;;;;;;;11.30;4.37;;;;;;;;;;5008743;28;20448;-74
2023/08/27 00:31:44;;;;;;;9.87;4.03;;;18.10;1.00;;;;;;5009686;28;20186;-75
2023/08/27 00:34:10;;;;;;;13.87;4.10;;;18.10;1.00;;;;;;5007293;28;20859;-74
2023/08/27 00:36:35;;;;;;;7.87;4.50;;;18.20;1.00;;;;;;5010097;28;20206;-74
2023/08/27 00:39:01;;;;;;;5.43;3.70;;;18.30;1.00;;;;;;5009480;28;20213;-75
2023/08/27 00:41:27;;;;;;;13.00;4.20;;;;;;;;;;5011286;28;20178;-77
2023/08/27 00:43:52;;;;;;;5.47;4.40;;;18.20;1.00;;;;;;5011629;28;20739;-73
2023/08/27 00:46:18;;;;;;;6.30;4.40;;;18.20;1.00;;;;;;5012171;28;20210;-75
2023/08/27 00:48:44;;;;;;;9.30;4.63;;;18.30;1.00;;;;;;5011807;28;20652;-76
2023/08/27 00:51:10;;;;;;;7.13;4.50;;;18.20;1.00;;;;;;5011257;28;20214;-75
2023/08/27 00:53:36;;;;;;;6.37;4.67;;;18.20;1.00;;;;;;5012322;28;20580;-75
2023/08/27 00:56:03;;;;;;;6.00;4.33;;;18.10;1.00;;;;;;5009617;28;20614;-75
2023/08/27 00:58:29;;;;;;;9.67;5.20;;;;;;;;;;5010995;28;20851;-75
2023/08/27 01:00:55;;;;;;;6.90;4.90;;;18.20;1.00;;;;;;5013091;28;20436;-75
2023/08/27 01:03:20;;;;;;;7.70;4.93;;;18.30;1.00;;;;;;5013734;28;20512;-76
2023/08/27 01:05:46;;;;;;;9.60;5.07;;;18.30;1.00;;;;;;5011247;28;20206;-74
2023/08/27 01:08:38;;;;;;;8.80;4.70;;;18.30;1.00;;;;;;5007804;28;20661;-76
2023/08/27 01:11:31;;;;;;;8.20;5.53;;;19.80;1.00;;;;;;5011949;28;20194;-75
2023/08/27 01:14:05;;;;;;;11.50;5.30;;;18.20;1.00;;;;;;5011863;28;21174;-74
2023/08/27 01:16:31;;;;;;;9.13;5.13;;;18.20;1.00;;;;;;5012659;28;20824;-75
2023/08/27 01:19:00;;;;;;;8.53;4.50;;;18.20;1.00;;;;;;5011377;28;20445;-74
2023/08/27 01:21:25;;;;;;;6.20;5.03;;;18.30;1.00;;;;;;5011582;28;20445;-74
2023/08/27 01:23:52;;;;;;;8.33;5.30;;;18.20;1.00;;;;;;5015380;28;21069;-74
2023/08/27 01:26:44;;;;;;;6.60;4.73;;;18.30;1.00;;;;;;5012338;28;20245;-75
2023/08/27 01:29:15;;;;;;;7.60;5.27;;;18.40;1.00;;;;;;5013271;28;20877;-75
2023/08/27 01:31:51;;;;;;;9.60;5.00;;;18.40;1.00;;;;;;5012608;28;20426;-76
2023/08/27 01:34:17;;;;;;;7.07;5.43;;;;;;;;;;5008979;28;20532;-76
2023/08/27 01:36:43;;;;;;;7.97;4.90;;;18.30;1.00;;;;;;5011321;28;20456;-73
2023/08/27 01:39:14;;;;;;;6.93;4.80;;;18.30;1.00;;;;;;5013184;28;20944;-76
2023/08/27 01:41:39;;;;;;;8.70;5.10;;;18.30;1.00;;;;;;5011447;28;20442;-76
2023/08/27 01:44:05;;;;;;;7.80;5.30;;;18.30;1.00;;;;;;5007716;28;20456;-75
2023/08/27 01:46:30;;;;;;;7.00;5.03;;;18.30;1.00;;;;;;5009357;28;20225;-75
2023/08/27 01:48:56;;;;;;;10.60;5.47;;;18.20;1.00;;;;;;5008814;28;20209;-73
2023/08/27 01:51:21;;;;;;;7.30;5.43;;;18.10;1.00;;;;;;5008088;28;20179;-74
2023/08/27 01:53:47;;;;;;;6.57;5.10;;;18.20;1.00;;;;;;5012043;28;20850;-74
2023/08/27 01:56:12;;;;;;;9.03;5.30;;;18.10;1.00;;;;;;5009627;28;20207;-74
2023/08/27 01:58:38;;;;;;;11.07;5.57;;;18.10;1.00;;;;;;5006699;28;20193;-75
2023/08/27 02:01:04;;;;;;;7.33;5.27;;;18.10;1.00;;;;;;5007510;28;20194;-74
2023/08/27 02:03:29;;;;;;;8.33;5.00;;;18.10;1.00;;;;;;5010473;28;20190;-74
2023/08/27 02:05:55;;;;;;;8.37;5.37;;;18.20;1.00;;;;;;5009663;28;20229;-74
2023/08/27 02:08:20;;;;;;;10.40;5.60;;;18.20;1.00;;;;;;5007943;28;20186;-76
2023/08/27 02:10:49;;;;;;;10.80;5.47;;;18.20;1.00;;;;;;5010003;28;20182;-75
2023/08/27 02:13:15;;;;;;;7.37;5.50;;;18.20;1.00;;;;;;5009696;28;20202;-76
2023/08/27 02:15:42;;;;;;;8.63;5.83;;;18.10;1.00;;;;;;5008098;28;20511;-74
2023/08/27 02:18:08;;;;;;;8.73;6.37;;;18.10;1.00;;;;;;5009071;28;20247;-75
2023/08/27 02:20:33;;;;;;;7.83;6.27;;;18.10;1.00;;;;;;5008381;28;20866;-75
2023/08/27 02:22:59;;;;;;;10.47;5.73;;;18.10;1.00;;;;;;5012042;28;20178;-74
2023/08/27 02:25:24;;;;;;;12.30;6.40;;;18.10;1.00;;;;;;5009354;28;20631;-75
2023/08/27 02:27:50;;;;;;;11.67;6.33;;;18.10;1.00;;;;;;5008534;28;20198;-74
2023/08/27 02:30:16;;;;;;;9.53;5.77;;;18.20;1.00;;;;;;5009473;28;20672;-74
2023/08/27 02:32:41;;;;;;;9.30;6.00;;;18.30;1.00;;;;;;5008242;28;20190;-77
2023/08/27 02:35:07;;;;;;;15.87;6.40;;;;;;;;;;5008983;28;20719;-74
2023/08/27 02:37:33;;;;;;;9.27;5.73;;;18.40;1.00;;;;;;5008617;28;20206;-74
2023/08/27 02:39:58;;;;;;;13.10;6.50;;;17.00;1.00;;;;;;5009739;28;20507;-75
2023/08/27 02:42:24;;;;;;;9.17;6.03;;;;;;;;;;5009359;28;20190;-74
2023/08/27 02:44:50;;;;;;;7.70;6.33;;;18.40;1.00;;;;;;5008842;28;20615;-75
2023/08/27 02:47:16;;;;;;;13.13;6.30;;;18.40;1.00;;;;;;5009009;28;20214;-74
2023/08/27 02:49:41;;;;;;;10.33;7.10;;;18.40;1.00;;;;;;5008115;28;20265;-74
2023/08/27 02:52:07;;;;;;;10.00;6.83;;;;;;;;;;5009345;28;20229;-74
2023/08/27 02:54:33;;;;;;;7.30;6.50;;;18.40;1.00;;;;;;5006337;28;20195;-74
2023/08/27 02:56:58;;;;;;;10.77;6.67;;;18.40;1.00;;;;;;5008184;28;20214;-74
2023/08/27 02:59:24;;;;;;;10.43;7.40;;;;;;;;;;5001390;28;20197;-74
2023/08/27 03:01:52;;;;;;;8.57;6.30;;;18.30;1.00;;;;;;5009579;28;20220;-75
2023/08/27 03:04:18;;;;;;;13.43;7.13;;;18.40;1.00;;;;;;5008550;28;20201;-74
2023/08/27 03:06:43;;;;;;;11.00;6.70;;;18.40;1.00;;;;;;5009592;28;20449;-74
2023/08/27 03:09:09;;;;;;;9.77;6.77;;;18.40;1.00;;;;;;5006616;28;20186;-75
2023/08/27 03:11:34;;;;;;;10.13;6.30;;;18.50;1.00;;;;;;5009244;28;20182;-74
2023/08/27 03:14:00;;;;;;;12.80;7.10;;;18.40;1.00;;;;;;5007521;28;20218;-74
2023/08/27 03:16:25;;;;;;;9.23;6.33;;;18.40;1.00;;;;;;5006732;28;20217;-74
2023/08/27 03:18:51;;;;;;;11.43;5.77;;;18.30;1.00;;;;;;5008225;28;20183;-74
2023/08/27 03:21:16;;;;;;;9.80;5.80;;;18.20;1.00;;;;;;5008671;28;20194;-75
2023/08/27 03:23:42;;;;;;;13.10;6.83;;;18.20;1.00;;;;;;5011021;28;20663;-75
2023/08/27 03:26:07;;;;;;;9.13;6.30;;;18.20;1.00;;;;;;5008781;28;20469;-72
2023/08/27 03:28:33;;;;;;;9.27;6.70;;;18.20;1.00;;;;;;5009186;28;20195;-74
2023/08/27 03:31:03;;;;;;;11.97;6.60;;;18.20;1.00;;;;;;5009997;28;20191;-74
2023/08/27 03:33:31;;;;;;;9.17;6.23;;;18.20;1.00;;;;;;5011635;28;20605;-73
2023/08/27 03:35:58;;;;;;;9.83;6.73;;;18.30;1.00;;;;;;5012559;28;20522;-74
2023/08/27 03:38:24;;;;;;;11.87;6.33;;;18.30;1.00;;;;;;5008647;28;20425;-72
2023/08/27 03:40:51;;;;;;;10.07;6.57;;;18.40;1.00;;;;;;5012370;28;20803;-74
2023/08/27 03:43:17;;;;;;;12.50;6.40;;;18.40;1.00;;;;;;5012729;28;20278;-73
2023/08/27 03:45:43;;;;;;;16.40;5.93;;;18.50;1.00;;;;;;5007431;28;20473;-74
2023/08/27 03:48:09;;;;;;;8.80;6.00;;;18.50;1.00;;;;;;5010848;28;20739;-72
2023/08/27 03:50:37;;;;;;;9.90;6.27;;;18.60;1.00;;;;;;5010022;28;20437;-74
2023/08/27 03:53:04;;;;;;;8.13;6.10;;;18.60;1.00;;;;;;5014434;28;20205;-74
2023/08/27 03:55:30;;;;;;;10.07;6.40;;;18.70;1.00;;;;;;5010006;28;20504;-75
2023/08/27 03:57:56;;;;;;;7.83;6.10;;;18.50;1.00;;;;;;5011622;28;20933;-75
2023/08/27 04:00:21;;;;;;;9.40;5.73;;;18.60;1.00;;;;;;5005404;28;20191;-76
2023/08/27 04:02:47;;;;;;;9.07;5.80;;;;;;;;;;5008900;28;20836;-74
2023/08/27 04:05:13;;;;;;;11.20;6.50;;;18.50;1.00;;;;;;5009400;28;20693;-75
2023/08/27 04:07:39;;;;;;;8.10;5.87;;;18.50;1.00;;;;;;5011244;28;20572;-75
2023/08/27 04:10:04;;;;;;;8.37;5.30;;;18.40;1.00;;;;;;5010480;28;20625;-75
2023/08/27 04:12:33;;;;;;;6.77;5.60;;;18.40;1.00;;;;;;5010676;28;20688;-75
2023/08/27 04:14:59;;;;;;;11.37;6.87;;;18.30;1.00;;;;;;5010407;28;20202;-74
2023/08/27 04:17:25;;;;;;;11.27;6.00;;;;;;;;;;5010908;28;20878;-75
2023/08/27 04:19:52;;;;;;;8.67;6.10;;;18.30;1.00;;;;;;5010196;28;20577;-74
2023/08/27 04:22:18;;;;;;;8.03;6.13;;;18.30;1.00;;;;;;5010306;28;20201;-74
2023/08/27 04:24:43;;;;;;;11.53;6.27;;;18.30;1.00;;;;;;5014760;28;20465;-74
2023/08/27 04:27:10;;;;;;;8.80;6.40;;;18.30;1.00;;;;;;5011139;28;20210;-76
2023/08/27 04:29:36;;;;;;;11.40;6.43;;;18.20;1.00;;;;;;5009321;28;20554;-75
2023/08/27 04:32:01;;;;;;;8.83;6.50;;;18.20;1.00;;;;;;5011225;28;20442;-74
2023/08/27 04:34:27;;;;;;;10.87;6.17;;;18.20;1.00;;;;;;5009408;28;20229;-76
2023/08/27 04:36:53;;;;;;;8.80;6.20;;;;;;;;;;5011017;28;20245;-77
2023/08/27 04:39:18;;;;;;;9.20;6.27;;;18.20;1.00;;;;;;5009547;28;20186;-74
2023/08/27 04:41:44;;;;;;;8.13;5.87;;;18.20;1.00;;;;;;5009911;28;20186;-74
2023/08/27 04:44:09;;;;;;;9.63;6.90;;;18.20;1.00;;;;;;5007932;28;20186;-75
2023/08/27 04:46:36;;;;;;;7.30;6.53;;;18.20;1.00;;;;;;5009106;28;20221;-75
2023/08/27 04:49:01;;;;;;;10.30;5.80;;;18.20;1.00;;;;;;5010263;28;20178;-74
2023/08/27 04:51:28;;;;;;;10.43;5.93;;;18.20;1.00;;;;;;5009349;28;20499;-74
2023/08/27 04:53:53;;;;;;;9.50;6.30;;;18.20;1.00;;;;;;5011878;28;20193;-74
2023/08/27 04:56:19;;;;;;;14.43;6.47;;;18.20;1.00;;;;;;5008543;28;20465;-74
2023/08/27 04:58:45;;;;;;;11.37;6.67;;;;;;;;;;5007580;28;20186;-74
2023/08/27 05:01:11;;;;;;;7.60;6.33;;;18.20;1.00;;;;;;5010860;28;20186;-74
2023/08/27 05:03:36;;;;;;;10.20;6.30;;;18.20;1.00;;;;;;5008942;28;20272;-75
2023/08/27 05:06:02;;;;;;;9.17;6.07;;;;;;;;;;5009695;28;20217;-74
2023/08/27 05:08:28;;;;;;;12.30;6.70;;;18.10;1.00;;;;;;5009286;28;20776;-74
2023/08/27 05:10:53;;;;;;;9.10;6.30;;;18.10;1.00;;;;;;5010832;28;20205;-74
2023/08/27 05:13:19;;;;;;;11.10;6.20;;;18.10;1.00;;;;;;5010158;28;20191;-74
2023/08/27 05:15:45;;;;;;;16.90;7.13;;;18.00;1.00;;;;;;5012819;28;20194;-74
2023/08/27 05:18:11;;;;;;;9.50;6.37;;;18.00;1.00;;;;;;5010934;28;20201;-74
2023/08/27 05:20:39;;;;;;;8.97;6.63;;;18.10;1.00;;;;;;5010433;28;20194;-74
2023/08/27 05:23:05;;;;;;;8.07;6.00;;;18.10;1.00;;;;;;5013727;28;20221;-74
2023/08/27 05:25:31;;;;;;;8.40;6.70;;;;;;;;;;5011410;28;20883;-74
2023/08/27 05:27:56;;;;;;;8.27;6.97;;;18.10;1.00;;;;;;5005137;28;20903;-74
2023/08/27 05:30:22;;;;;;;12.73;6.53;;;18.30;1.00;;;;;;5008481;28;20483;-74
2023/08/27 05:32:47;;;;;;;12.07;7.00;;;18.10;1.00;;;;;;5009720;28;20266;-75
2023/08/27 05:35:13;;;;;;;8.90;6.73;;;18.50;1.00;;;;;;5010636;28;20698;-74
2023/08/27 05:37:39;;;;;;;11.90;6.73;;;18.60;1.00;;;;;;5008994;28;20194;-74
2023/08/27 05:40:06;;;;;;;9.00;6.63;;;18.60;1.00;;;;;;5008818;28;20241;-74
2023/08/27 05:42:32;;;;;;;11.13;6.47;;;18.70;1.00;;;;;;5003360;28;20186;-74
2023/08/27 05:44:58;;;;;;;8.67;6.27;;;18.70;1.00;;;;;;5008330;28;20461;-74
2023/08/27 05:47:23;;;;;;;10.03;6.53;;;18.90;1.00;;;;;;5008642;28;21013;-74
2023/08/27 05:49:49;;;;;;;11.67;6.70;;;;;;;;;;5006454;28;20178;-75
2023/08/27 05:52:15;;;;;;;9.13;6.40;;;18.90;1.00;;;;;;5009562;28;20178;-74
2023/08/27 05:54:40;;;;;;;10.60;6.80;;;18.80;1.00;;;;;;5011272;28;20731;-74
2023/08/27 05:57:06;;;;;;;14.40;7.23;;;18.80;1.00;;;;;;5006157;28;20202;-74
2023/08/27 05:59:32;;;;;;;10.40;6.30;;;18.90;1.00;;;;;;5008740;28;20213;-74
2023/08/27 06:01:58;;;;;;;12.30;7.60;;;19.00;1.00;;;;;;5007274;28;20263;-75
2023/08/27 06:04:24;;;;;;;10.57;6.90;;;19.00;1.00;;;;;;5006257;28;20175;-74
2023/08/27 06:06:50;;;;;;;11.40;6.20;;;19.10;1.00;;;;;;5009090;28;20879;-75
2023/08/27 06:09:16;;;;;;;10.53;6.30;;;19.20;1.00;;;;;;5009811;28;20652;-76
2023/08/27 06:11:42;;;;;;;11.83;6.67;;;19.30;1.00;;;;;;5007680;28;20198;-74
2023/08/27 06:14:07;;;;;;;10.07;6.63;;;19.40;1.00;;;;;;5006138;28;20453;-74
2023/08/27 06:16:33;;;;;;;10.50;6.90;;;19.40;1.00;;;;;;5006742;28;20206;-73
2023/08/27 06:18:59;;;;;;;10.17;5.97;;;19.40;1.00;;;;;;5002685;28;20610;-74
2023/08/27 06:21:24;;;;;;;14.00;6.17;;;20.70;1.00;;;;;;5008638;28;20194;-74
2023/08/27 06:23:50;;;;;;;8.57;6.40;;;19.50;1.00;;;;;;5009443;28;20193;-74
2023/08/27 06:26:15;;;;;;;11.60;6.60;;;19.60;1.00;;;;;;5007003;28;20325;-74
2023/08/27 06:28:41;;;;;;;8.70;6.23;;;19.90;1.00;;;;;;5007214;28;20431;-74
2023/08/27 06:31:06;;;;;;;9.50;6.40;;;19.50;1.00;;;;;;5008187;28;20190;-74
2023/08/27 06:33:32;;;;;;;10.43;6.00;;;19.40;1.00;;;;;;5007141;28;20435;-74
2023/08/27 06:35:58;;;;;;;10.27;6.13;;;19.40;1.00;;;;;;5006717;28;20214;-73
2023/08/27 06:38:24;;;;;;;12.67;6.63;;;19.40;1.00;;;;;;5003007;28;20195;-74
2023/08/27 06:40:50;;;;;;;10.37;6.60;;;19.40;1.00;;;;;;5007442;28;20519;-72
2023/08/27 06:43:15;;;;;;;8.90;7.03;;;19.50;1.00;;;;;;5008719;28;20554;-72
2023/08/27 06:45:41;;;;;;;12.03;7.40;;;19.50;1.00;;;;;;5008564;28;20210;-74
2023/08/27 06:48:08;;;;;;;8.80;7.03;;;19.50;1.00;;;;;;5010322;28;20217;-70
2023/08/27 06:50:33;;;;;;;10.43;6.80;;;19.90;1.00;;;;;;5008654;28;20237;-73
2023/08/27 06:52:59;;;;;;;11.13;6.87;;;19.80;1.00;;;;;;5011194;28;20843;-72
2023/08/27 06:55:24;;;;;;;19.77;7.50;;;19.90;1.00;;;;;;5007014;28;20237;-72
2023/08/27 06:57:50;;;;;;;13.60;8.00;;;19.90;1.00;;;;;;5006808;28;20213;-72
2023/08/27 07:00:17;;;;;;;11.53;7.10;;;19.90;1.00;;;;;;5003612;28;20241;-74
2023/08/27 07:02:43;;;;;;;10.20;7.30;;;19.90;1.00;;;;;;5007795;28;20601;-72
2023/08/27 07:05:09;;;;;;;8.60;6.90;;;19.90;1.00;;;;;;5007727;28;20556;-72
2023/08/27 07:07:38;;;;;;;7.40;6.20;;;21.60;1.00;;;;;;5008282;28;20563;-73
2023/08/27 07:10:08;;;;;;;9.57;6.63;;;20.00;1.00;;;;;;5010502;28;20210;-74
2023/08/27 07:12:35;;;;;;;10.13;6.87;;;20.00;1.00;;;;;;5010726;28;20472;-71
2023/08/27 07:15:01;;;;;;;12.93;5.87;;;20.10;1.00;;;;;;5011902;28;20441;-73
2023/08/27 07:17:26;;;;;;;10.60;6.10;;;20.20;1.00;;;;;;5011348;28;20472;-73
2023/08/27 07:19:52;;;;;;;10.70;6.47;;;20.40;1.00;;;;;;5010686;28;20444;-73
2023/08/27 07:22:17;;;;;;;8.30;6.37;;;20.50;1.00;;;;;;5011358;28;20554;-72
2023/08/27 07:24:43;;;;;;;10.63;6.70;;;20.40;1.00;;;;;;5014535;28;20210;-72
2023/08/27 07:27:09;;;;;;;11.37;6.70;;;20.30;1.00;;;;;;5011755;28;20256;-72
2023/08/27 07:29:38;;;;;;;12.87;6.13;;;20.40;1.00;;;;;;5011139;28;20983;-76
2023/08/27 07:32:04;;;;;;;10.77;6.70;;;20.40;1.00;;;;;;5007901;28;20293;-74
2023/08/27 07:34:30;;;;;;;9.43;6.67;;;20.60;1.00;;;;;;5008864;28;21014;-74
2023/08/27 07:36:56;;;;;;;14.83;6.47;;;20.80;1.00;;;;;;5011024;28;20289;-73
2023/08/27 07:39:22;;;;;;;7.90;6.70;;;20.80;1.00;;;;;;5010944;28;20532;-74
2023/08/27 07:41:49;;;;;;;8.53;5.87;;;;;;;;;;5010932;28;20217;-74
2023/08/27 07:44:15;;;;;;;13.03;6.60;;;;;;;;;;5011482;28;20428;-74
2023/08/27 07:46:41;;;;;;;9.53;6.73;;;20.90;1.00;;;;;;5011534;28;20891;-73
2023/08/27 07:49:06;;;;;;;8.87;5.90;;;21.00;1.00;;;;;;5010691;28;20445;-73
2023/08/27 07:51:32;;;;;;;9.37;6.20;;;21.20;1.00;;;;;;5011166;28;20194;-75
2023/08/27 07:53:57;;;;;;;12.37;6.53;;;21.20;1.00;;;;;;5011815;28;20179;-74
2023/08/27 07:56:23;;;;;;;8.47;6.20;;;21.30;1.00;;;;;;5008484;28;20328;-74
2023/08/27 07:58:49;;;;;;;14.73;7.10;;;21.20;1.00;;;;;;5008948;28;20237;-73
2023/08/27 08:01:15;;;;;;;11.87;6.50;;;21.30;1.00;;;;;;5011179;28;20441;-73
2023/08/27 08:03:41;;;;;;;10.83;7.00;;;21.30;1.00;;;;;;5012442;28;20190;-75
2023/08/27 08:06:07;;;;;;;9.40;6.30;;;;;;;;;;5012831;28;20210;-76
2023/08/27 08:08:33;;;;;;;11.53;7.50;;;21.10;1.00;;;;;;5012545;28;20684;-72
2023/08/27 08:10:59;;;;;;;11.03;6.87;;;21.00;1.00;;;;;;5012856;28;20508;-75
2023/08/27 08:13:25;;;;;;;10.33;6.63;;;21.10;1.00;;;;;;5012952;28;20597;-76
2023/08/27 08:15:51;;;;;;;11.10;7.63;;;;;;;;;;5012721;28;20206;-74
2023/08/27 08:18:17;;;;;;;10.60;7.87;;;21.20;1.00;;;;;;5012680;28;20186;-74
2023/08/27 08:20:43;;;;;;;14.17;8.00;;;;;;;;;;5012116;28;20198;-73
2023/08/27 08:23:09;;;;;;;12.97;7.33;;;21.00;1.00;;;;;;5016259;28;20262;-73
2023/08/27 08:25:37;;;;;;;12.80;7.37;;;;;;;;;;5015289;28;21050;-72
2023/08/27 08:28:03;;;;;;;13.30;7.30;;;20.90;1.00;;;;;;5012870;28;20557;-75
2023/08/27 08:30:28;;;;;;;10.87;7.60;;;21.20;1.00;;;;;;5012319;28;20428;-75
2023/08/27 08:32:54;;;;;;;12.40;7.20;;;;;;;;;;5011962;28;20425;-75
2023/08/27 08:35:20;;;;;;;11.33;6.40;;;21.40;1.00;;;;;;5011946;28;20534;-75
2023/08/27 08:37:46;;;;;;;11.40;7.37;;;;;;;;;;5012037;28;20464;-74
2023/08/27 08:40:12;;;;;;;11.63;7.90;;;;;;;;;;5012833;28;20197;-74
2023/08/27 08:42:52;;;;;;;11.60;7.70;;;21.40;1.00;;;;;;5010455;28;20186;-72
2023/08/27 08:45:29;;;;;;;13.20;6.93;;;21.50;1.00;;;;;;5012093;28;20472;-74
2023/08/27 08:47:56;;;;;;;14.93;7.80;;;21.60;1.00;;;;;;5011286;28;20449;-74
2023/08/27 08:50:22;;;;;;;9.90;7.30;;;;;;;;;;5012468;28;20421;-74
2023/08/27 08:52:50;;;;;;;12.30;7.37;;;21.70;1.00;;;;;;5012469;28;20492;-75
2023/08/27 08:55:16;;;;;;;12.20;6.57;;;21.80;1.00;;;;;;5018260;28;20802;-75
2023/08/27 08:57:49;;;;;;;14.27;6.90;;;22.10;1.00;;;;;;5011549;28;20523;-74
2023/08/27 09:00:16;;;;;;;13.23;7.00;;;22.10;1.00;;;;;;5008342;28;20539;-76
2023/08/27 09:02:42;;;;;;;11.37;6.53;;;22.40;1.00;;;;;;5011472;28;20463;-75
2023/08/27 09:05:12;;;;;;;8.60;6.17;;;23.00;1.00;;;;;;5010671;28;20477;-75
2023/08/27 09:07:39;;;;;;;12.53;6.60;;;;;;;;;;5011682;28;20444;-72
2023/08/27 09:10:05;;;;;;;9.33;6.30;;;23.30;1.00;;;;;;5011911;28;20790;-74
2023/08/27 09:12:30;;;;;;;22.53;7.10;;;23.30;1.00;;;;;;5011919;28;20504;-74
2023/08/27 09:14:57;;;;;;;11.43;7.00;;;23.70;1.00;;;;;;5010946;28;20185;-75
2023/08/27 09:17:23;;;;;;;13.10;7.50;;;24.00;1.00;;;;;;5012002;28;20205;-75
2023/08/27 09:19:51;;;;;;;11.00;6.23;;;23.90;1.00;;;;;;5011455;28;20913;-75
2023/08/27 09:22:17;;;;;;;12.80;6.50;;;24.30;1.00;;;;;;5011882;28;20273;-75
2023/08/27 09:24:44;;;;;;;10.10;6.27;;;;;;;;;;5018719;28;20429;-74
2023/08/27 09:27:12;;;;;;;8.20;6.03;;;25.00;1.00;;;;;;5011911;28;20506;-74
2023/08/27 09:29:38;;;;;;;7.00;6.10;;;25.00;1.00;;;;;;5010714;28;20447;-74
2023/08/27 09:32:04;;;;;;;7.60;5.30;;;21.50;1.00;;;;;;5011693;28;20924;-74
2023/08/27 09:34:37;;;;;;;9.30;5.70;;;25.00;1.00;;;;;;5011483;28;20472;-74
2023/08/27 09:37:03;;;;;;;8.47;5.50;;;;;;;;;;5011923;28;20804;-75
2023/08/27 09:39:30;;;;;;;8.47;6.43;;;25.30;1.00;;;;;;5007322;28;20484;-74
2023/08/27 09:41:56;;;;;;;7.47;5.70;;;;;;;;;;5007551;28;20445;-74
2023/08/27 09:44:25;;;;;;;9.30;5.23;;;25.40;1.00;;;;;;5006869;28;20432;-74
2023/08/27 09:46:51;;;;;;;8.27;5.40;;;25.80;1.00;;;;;;5008763;28;20212;-75
2023/08/27 09:49:17;;;;;;;8.27;5.13;;;25.60;1.00;;;;;;5008925;28;20583;-74
2023/08/27 09:51:42;;;;;;;9.37;5.33;;;25.20;1.00;;;;;;5005473;28;20997;-74
2023/08/27 09:54:19;;;;;;;9.67;5.20;;;25.20;1.00;;;;;;5007099;28;20193;-75
2023/08/27 09:56:47;;;;;;;15.03;6.10;;;25.10;1.00;;;;;;5009025;28;20209;-75
2023/08/27 09:59:16;;;;;;;14.77;6.10;;;24.70;1.00;;;;;;5004039;28;20479;-74
2023/08/27 10:01:47;;;;;;;7.83;5.70;;;24.50;1.00;;;;;;5013595;28;20419;-76
2023/08/27 10:04:13;;;;;;;9.93;5.80;;;;;;;;;;5002831;28;20595;-74
2023/08/27 10:06:38;;;;;;;11.03;6.07;;;24.50;1.00;;;;;;5008274;28;21049;-75
2023/08/27 10:09:04;;;;;;;8.90;6.07;;;24.70;1.00;;;;;;5010475;28;20524;-76
2023/08/27 10:11:33;;;;;;;6.63;5.03;;;25.10;1.00;;;;;;5010197;28;20178;-73
2023/08/27 10:13:59;;;;;;;7.63;5.30;;;25.40;1.00;;;;;;5009521;28;20184;-76
2023/08/27 10:16:28;;;;;;;9.23;4.73;;;25.20;1.00;;;;;;5010021;28;20912;-74
2023/08/27 10:18:54;;;;;;;15.40;5.40;;;25.20;1.00;;;;;;4990204;28;20430;-75
2023/08/27 10:21:20;;;;;;;9.67;5.10;;;;;;;;;;5010359;28;20512;-75
2023/08/27 10:23:47;;;;;;;7.07;4.70;;;25.80;1.00;;;;;;5009543;28;20432;-73
2023/08/27 10:26:14;;;;;;;10.77;4.57;;;26.00;1.00;;;;;;5010241;28;20547;-75
2023/08/27 10:28:41;;;;;;;10.00;4.70;;;26.00;1.00;;;;;;5010537;28;20508;-75
2023/08/27 10:31:07;;;;;;;6.30;4.23;;;26.20;1.00;;;;;;5009601;28;20425;-75
2023/08/27 10:33:33;;;;;;;11.00;5.00;;;;;;;;;;5008897;28;20452;-75
2023/08/27 10:36:04;;;;;;;8.33;5.00;;;26.50;1.00;;;;;;5008985;28;20437;-75
2023/08/27 10:38:33;;;;;;;8.67;4.50;;;27.20;1.00;;;;;;5010237;28;20174;-74
2023/08/27 10:41:00;;;;;;;5.70;4.50;;;27.20;1.00;;;;;;5009088;28;20456;-74
2023/08/27 10:43:35;;;;;;;7.03;4.80;;;27.80;1.00;;;;;;5014031;28;20516;-74
2023/08/27 10:46:17;;;;;;;6.00;3.97;;;27.80;1.00;;;;;;5013336;28;20553;-74
2023/08/27 10:48:50;;;;;;;7.13;4.07;;;27.80;1.00;;;;;;5013721;28;20980;-74
2023/08/27 10:51:17;;;;;;;8.00;3.80;;;27.80;1.00;;;;;;5013711;28;20483;-75
2023/08/27 10:53:49;;;;;;;8.13;4.57;;;27.80;1.00;;;;;;5012906;28;20260;-75
2023/08/27 10:56:35;;;;;;;7.20;3.87;;;27.50;1.00;;;;;;5013720;28;20209;-75
2023/08/27 10:59:11;;;;;;;8.80;4.50;;;27.90;1.00;;;;;;5012902;28;20416;-74
2023/08/27 11:02:10;;;;;;;7.23;4.20;;;28.00;1.00;;;;;;5013518;28;20543;-75
2023/08/27 11:04:43;;;;;;;7.33;4.07;;;28.10;1.00;;;;;;5006315;28;20200;-75
2023/08/27 11:07:15;;;;;;;5.40;3.77;;;28.60;1.00;;;;;;5012740;28;20221;-76
2023/08/27 11:09:48;;;;;;;7.10;4.00;;;28.80;1.00;;;;;;5012940;28;20240;-74
2023/08/27 11:12:25;;;;;;;6.20;3.43;;;28.00;1.00;;;;;;5005735;28;20182;-74
2023/08/27 11:14:54;;;;;;;7.83;3.63;;;27.70;1.00;;;;;;5011447;28;20177;-72
2023/08/27 11:17:24;;;;;;;6.17;3.77;;;28.60;1.00;;;;;;5013308;28;20304;-74
2023/08/27 11:19:49;;;;;;;8.33;3.97;;;28.90;1.00;;;;;;5012778;28;20522;-76
2023/08/27 11:22:19;;;;;;;5.90;3.20;;;29.00;1.00;;;;;;5012970;28;20236;-74
2023/08/27 11:24:49;;;;;;;6.00;3.17;;;28.10;1.00;;;;;;5013821;28;20178;-74
2023/08/27 11:27:23;;;;;;;5.27;3.77;;;28.10;1.00;;;;;;5013529;28;20699;-74
2023/08/27 11:29:55;;;;;;;5.87;3.40;;;27.60;1.00;;;;;;5014317;28;20181;-75
2023/08/27 11:32:21;;;;;;;6.30;3.40;;;27.60;1.00;;;;;;5016446;28;20261;-74
2023/08/27 11:34:50;;;;;;;5.17;3.00;;;27.70;1.00;;;;;;5012703;28;20534;-75
2023/08/27 11:37:17;;;;;;;6.50;3.27;;;28.80;1.00;;;;;;5014211;28;20201;-73
2023/08/27 11:39:43;;;;;;;4.87;2.97;;;29.60;1.00;;;;;;5012677;28;20704;-75
2023/08/27 11:42:16;;;;;;;6.37;3.30;;;29.80;1.00;;;;;;5011324;28;20186;-76
2023/08/27 11:44:53;;;;;;;6.00;3.30;;;29.30;1.00;;;;;;4992718;28;20260;-75
2023/08/27 11:47:20;;;;;;;4.80;3.20;;;29.00;1.00;;;;;;5008166;28;20683;-76
2023/08/27 11:49:46;;;;;;;4.37;3.00;;;28.50;1.00;;;;;;5010298;28;20192;-75
2023/08/27 11:52:15;;;;;;;5.43;3.07;;;27.40;1.00;;;;;;5007730;28;20949;-74
2023/08/27 11:54:43;;;;;;;7.63;3.10;;;27.20;1.00;;;;;;5008122;28;20182;-74
2023/08/27 11:57:09;;;;;;;5.23;2.90;;;26.90;1.00;;;;;;5009086;28;20444;-75
2023/08/27 11:59:37;;;;;;;5.20;3.30;;;27.10;1.00;;;;;;5005008;28;21009;-75
2023/08/27 12:02:04;;;;;;;5.60;3.37;;;26.50;1.00;;;;;;5007238;28;20437;-75
2023/08/27 12:04:32;;;;;;;4.50;3.40;;;26.70;1.00;;;;;;5010941;28;20424;-75
2023/08/27 12:07:03;;;;;;;5.20;3.50;;;26.90;1.00;;;;;;5007014;28;20468;-75
2023/08/27 12:09:30;;;;;;;7.73;3.23;;;27.30;1.00;;;;;;5009896;28;20463;-75
2023/08/27 12:12:00;;;;;;;4.97;3.60;;;27.50;1.00;;;;;;5002287;28;20440;-73
2023/08/27 12:14:27;;;;;;;7.63;3.70;;;;;;;;;;5012002;28;20444;-75
2023/08/27 12:16:53;;;;;;;6.27;4.77;;;27.30;1.00;;;;;;5015356;28;20452;-75
2023/08/27 12:19:22;;;;;;;6.20;4.37;;;27.30;1.00;;;;;;5011325;28;20475;-74
2023/08/27 12:21:51;;;;;;;8.87;3.67;;;27.70;1.00;;;;;;5012233;28;20436;-74
2023/08/27 12:24:34;;;;;;;7.00;3.90;;;27.70;1.00;;;;;;5012827;28;20443;-74
2023/08/27 12:27:06;;;;;;;8.53;3.60;;;27.40;1.00;;;;;;5011766;28;20511;-74
2023/08/27 12:29:34;;;;;;;5.73;3.60;;;27.20;1.00;;;;;;5011571;28;20420;-74
2023/08/27 12:32:13;;;;;;;6.33;3.30;;;27.00;1.00;;;;;;5009303;28;20863;-76
2023/08/27 12:34:44;;;;;;;5.03;3.57;;;26.90;1.00;;;;;;4999983;28;20900;-75
2023/08/27 12:37:11;;;;;;;5.80;3.50;;;26.70;1.00;;;;;;5006164;28;20891;-76
2023/08/27 12:39:41;;;;;;;5.10;3.00;;;26.80;1.00;;;;;;5006573;28;20433;-74
2023/08/27 12:42:07;;;;;;;4.97;3.30;;;26.50;1.00;;;;;;5010206;28;20437;-74
2023/08/27 12:44:33;;;;;;;4.50;3.17;;;26.50;1.00;;;;;;5009768;28;21511;-74
2023/08/27 12:47:00;;;;;;;5.63;3.40;;;;;;;;;;5009540;28;20890;-76
2023/08/27 12:49:25;;;;;;;6.57;3.60;;;26.50;1.00;;;;;;5016364;28;20997;-75
2023/08/27 12:51:51;;;;;;;9.60;3.50;;;26.00;1.00;;;;;;5016803;28;20444;-76
2023/08/27 12:54:17;;;;;;;5.40;3.93;;;26.20;1.00;;;;;;5014028;28;20197;-73
2023/08/27 12:56:43;;;;;;;6.90;3.73;;;26.30;1.00;;;;;;5012081;28;20259;-73
2023/08/27 12:59:10;;;;;;;5.00;3.67;;;26.40;1.00;;;;;;5011494;28;20472;-74
2023/08/27 13:01:37;;;;;;;6.23;4.07;;;26.90;1.00;;;;;;5018037;28;20425;-73